sensor_id;sensor_type;location;lat;lon;timestamp;temperature;humidity
31747;DHT22;18319;48.974;8.462;2023-06-14T09:15:19;25.80;27.90
31747;DHT22;18319;48.974;8.462;2023-06-14T09:17:46;26.20;26.90
31747;DHT22;18319;48.974;8.462;2023-06-14T09:20:12;25.50;27.30
31747;DHT22;18319;48.974;8.462;2023-06-14T09:22:43;26.00;28.00
31747;DHT22;18319;48.974;8.462;2023-06-14T09:25:10;26.10;27.40
31747;DHT22;18319;48.974;8.462;2023-06-14T09:27:38;26.20;27.70
31747;DHT22;18319;48.974;8.462;2023-06-14T09:30:10;26.50;26.00
31747;DHT22;18319;48.974;8.462;2023-06-14T09:32:39;25.20;26.10
31747;DHT22;18319;48.974;8.462;2023-06-14T09:35:07;25.80;27.00
31747;DHT22;18319;48.974;8.462;2023-06-14T09:37:34;25.40;27.00
31747;DHT22;18319;48.974;8.462;2023-06-14T09:40:04;25.60;28.60
31747;DHT22;18319;48.974;8.462;2023-06-14T09:42:33;25.20;27.20
31747;DHT22;18319;48.974;8.462;2023-06-14T09:45:02;25.20;27.20
31747;DHT22;18319;48.974;8.462;2023-06-14T09:47:29;25.40;27.50
31747;DHT22;18319;48.974;8.462;2023-06-14T09:49:57;25.80;26.50
31747;DHT22;18319;48.974;8.462;2023-06-14T09:52:26;25.90;27.00
31747;DHT22;18319;48.974;8.462;2023-06-14T09:54:55;25.90;26.60
31747;DHT22;18319;48.974;8.462;2023-06-14T09:57:23;26.00;25.80
31747;DHT22;18319;48.974;8.462;2023-06-14T09:59:53;26.20;27.00
31747;DHT22;18319;48.974;8.462;2023-06-14T10:02:25;25.40;26.00
31747;DHT22;18319;48.974;8.462;2023-06-14T10:05:04;25.20;26.80
31747;DHT22;18319;48.974;8.462;2023-06-14T10:07:35;25.70;27.70
31747;DHT22;18319;48.974;8.462;2023-06-14T10:10:06;25.60;26.60
31747;DHT22;18319;48.974;8.462;2023-06-14T10:12:33;25.50;25.90
31747;DHT22;18319;48.974;8.462;2023-06-14T10:15:00;25.10;26.20
31747;DHT22;18319;48.974;8.462;2023-06-14T10:17:35;25.10;27.60
31747;DHT22;18319;48.974;8.462;2023-06-14T10:20:18;25.60;26.70
31747;DHT22;18319;48.974;8.462;2023-06-14T10:22:50;26.00;28.00
31747;DHT22;18319;48.974;8.462;2023-06-14T10:25:28;25.30;27.90
31747;DHT22;18319;48.974;8.462;2023-06-14T10:28:17;25.50;26.90
31747;DHT22;18319;48.974;8.462;2023-06-14T10:31:03;25.20;25.60
31747;DHT22;18319;48.974;8.462;2023-06-14T10:33:31;25.40;27.30
31747;DHT22;18319;48.974;8.462;2023-06-14T10:36:10;25.50;28.90
31747;DHT22;18319;48.974;8.462;2023-06-14T10:38:37;25.40;25.60
31747;DHT22;18319;48.974;8.462;2023-06-14T10:41:04;25.20;24.20
31747;DHT22;18319;48.974;8.462;2023-06-14T10:43:32;25.30;24.90
31747;DHT22;18319;48.974;8.462;2023-06-14T10:46:15;25.20;24.80
31747;DHT22;18319;48.974;8.462;2023-06-14T10:48:42;25.10;26.10
31747;DHT22;18319;48.974;8.462;2023-06-14T10:51:17;24.70;25.60
31747;DHT22;18319;48.974;8.462;2023-06-14T10:53:46;24.60;25.40
31747;DHT22;18319;48.974;8.462;2023-06-14T10:56:23;24.60;25.30
31747;DHT22;18319;48.974;8.462;2023-06-14T10:58:51;24.30;25.10
31747;DHT22;18319;48.974;8.462;2023-06-14T11:01:28;24.30;25.80
31747;DHT22;18319;48.974;8.462;2023-06-14T11:04:07;24.00;24.80
31747;DHT22;18319;48.974;8.462;2023-06-14T11:06:46;23.90;26.60
31747;DHT22;18319;48.974;8.462;2023-06-14T11:09:31;24.20;27.00
31747;DHT22;18319;48.974;8.462;2023-06-14T11:12:09;24.60;26.10
31747;DHT22;18319;48.974;8.462;2023-06-14T11:14:36;25.00;26.60
31747;DHT22;18319;48.974;8.462;2023-06-14T11:17:04;25.00;24.50
31747;DHT22;18319;48.974;8.462;2023-06-14T11:19:31;25.00;24.50
31747;DHT22;18319;48.974;8.462;2023-06-14T11:21:59;25.10;27.80
31747;DHT22;18319;48.974;8.462;2023-06-14T11:24:26;24.70;25.70
31747;DHT22;18319;48.974;8.462;2023-06-14T11:26:52;24.50;27.80
31747;DHT22;18319;48.974;8.462;2023-06-14T11:29:21;24.50;28.00
31747;DHT22;18319;48.974;8.462;2023-06-14T11:31:48;24.80;27.00
31747;DHT22;18319;48.974;8.462;2023-06-14T11:34:15;25.20;27.00
31747;DHT22;18319;48.974;8.462;2023-06-14T11:36:42;24.80;25.00
31747;DHT22;18319;48.974;8.462;2023-06-14T11:39:10;24.60;26.20
31747;DHT22;18319;48.974;8.462;2023-06-14T11:41:39;24.40;28.50
31747;DHT22;18319;48.974;8.462;2023-06-14T11:44:06;24.70;27.80
31747;DHT22;18319;48.974;8.462;2023-06-14T11:46:33;24.70;25.90
31747;DHT22;18319;48.974;8.462;2023-06-14T11:49:02;24.70;26.60
31747;DHT22;18319;48.974;8.462;2023-06-14T11:51:30;25.10;27.00
31747;DHT22;18319;48.974;8.462;2023-06-14T11:53:57;25.20;26.30
31747;DHT22;18319;48.974;8.462;2023-06-14T11:56:26;25.20;25.50
31747;DHT22;18319;48.974;8.462;2023-06-14T11:58:53;25.20;24.80
31747;DHT22;18319;48.974;8.462;2023-06-14T12:01:22;25.40;25.60
31747;DHT22;18319;48.974;8.462;2023-06-14T12:03:49;25.20;24.60
31747;DHT22;18319;48.974;8.462;2023-06-14T12:06:16;24.60;26.40
31747;DHT22;18319;48.974;8.462;2023-06-14T12:08:55;24.40;26.50
31747;DHT22;18319;48.974;8.462;2023-06-14T12:11:22;24.60;27.20
31747;DHT22;18319;48.974;8.462;2023-06-14T12:13:50;25.00;27.00
31747;DHT22;18319;48.974;8.462;2023-06-14T12:16:17;25.50;26.70
31747;DHT22;18319;48.974;8.462;2023-06-14T12:18:43;25.20;24.70
31747;DHT22;18319;48.974;8.462;2023-06-14T12:21:11;25.50;26.10
31747;DHT22;18319;48.974;8.462;2023-06-14T12:23:45;26.00;26.80
31747;DHT22;18319;48.974;8.462;2023-06-14T12:26:13;25.80;27.00
31747;DHT22;18319;48.974;8.462;2023-06-14T12:28:41;25.40;27.90
31747;DHT22;18319;48.974;8.462;2023-06-14T12:31:11;25.00;26.70
31747;DHT22;18319;48.974;8.462;2023-06-14T12:33:38;25.00;27.10
31747;DHT22;18319;48.974;8.462;2023-06-14T12:36:07;25.20;27.10
31747;DHT22;18319;48.974;8.462;2023-06-14T12:38:34;25.60;27.20
31747;DHT22;18319;48.974;8.462;2023-06-14T12:41:01;26.20;27.60
31747;DHT22;18319;48.974;8.462;2023-06-14T12:43:28;26.70;26.60
31747;DHT22;18319;48.974;8.462;2023-06-14T12:45:55;26.50;25.70
31747;DHT22;18319;48.974;8.462;2023-06-14T12:48:23;26.70;25.90
31747;DHT22;18319;48.974;8.462;2023-06-14T12:50:50;26.70;27.60
31747;DHT22;18319;48.974;8.462;2023-06-14T12:53:17;26.50;27.90
31747;DHT22;18319;48.974;8.462;2023-06-14T12:55:43;26.20;25.30
31747;DHT22;18319;48.974;8.462;2023-06-14T12:58:10;25.50;26.40
31747;DHT22;18319;48.974;8.462;2023-06-14T13:00:39;25.60;26.50
31747;DHT22;18319;48.974;8.462;2023-06-14T13:03:06;25.70;26.70
31747;DHT22;18319;48.974;8.462;2023-06-14T13:05:34;25.80;26.60
31747;DHT22;18319;48.974;8.462;2023-06-14T13:08:02;25.60;25.00
31747;DHT22;18319;48.974;8.462;2023-06-14T13:10:30;25.60;24.30
31747;DHT22;18319;48.974;8.462;2023-06-14T13:12:56;25.70;26.50
31747;DHT22;18319;48.974;8.462;2023-06-14T13:15:25;25.90;26.20
31747;DHT22;18319;48.974;8.462;2023-06-14T13:17:52;25.70;25.20
31747;DHT22;18319;48.974;8.462;2023-06-14T13:20:19;25.60;25.50
31747;DHT22;18319;48.974;8.462;2023-06-14T13:22:50;25.40;25.90
31747;DHT22;18319;48.974;8.462;2023-06-14T13:25:16;25.40;26.30
31747;DHT22;18319;48.974;8.462;2023-06-14T13:27:43;25.40;26.00
31747;DHT22;18319;48.974;8.462;2023-06-14T13:30:11;25.40;27.10
31747;DHT22;18319;48.974;8.462;2023-06-14T13:32:38;25.40;27.10
31747;DHT22;18319;48.974;8.462;2023-06-14T13:35:05;25.20;26.80
31747;DHT22;18319;48.974;8.462;2023-06-14T13:37:32;25.20;25.30
31747;DHT22;18319;48.974;8.462;2023-06-14T13:40:00;25.10;25.80
31747;DHT22;18319;48.974;8.462;2023-06-14T13:42:27;25.00;27.60
31747;DHT22;18319;48.974;8.462;2023-06-14T13:44:56;25.10;26.00
31747;DHT22;18319;48.974;8.462;2023-06-14T13:47:23;25.20;25.70
31747;DHT22;18319;48.974;8.462;2023-06-14T13:49:50;25.10;27.40
31747;DHT22;18319;48.974;8.462;2023-06-14T13:52:17;24.90;26.00
31747;DHT22;18319;48.974;8.462;2023-06-14T13:54:44;24.60;27.70
31747;DHT22;18319;48.974;8.462;2023-06-14T13:57:12;24.40;27.10
31747;DHT22;18319;48.974;8.462;2023-06-14T13:59:39;24.30;27.40
31747;DHT22;18319;48.974;8.462;2023-06-14T14:02:06;24.40;27.60
31747;DHT22;18319;48.974;8.462;2023-06-14T14:04:34;24.30;25.80
31747;DHT22;18319;48.974;8.462;2023-06-14T14:07:01;24.30;25.80
31747;DHT22;18319;48.974;8.462;2023-06-14T14:09:28;24.30;25.90
31747;DHT22;18319;48.974;8.462;2023-06-14T14:11:55;24.20;26.20
31747;DHT22;18319;48.974;8.462;2023-06-14T14:14:23;24.20;25.90
31747;DHT22;18319;48.974;8.462;2023-06-14T14:16:51;24.40;27.10
31747;DHT22;18319;48.974;8.462;2023-06-14T14:19:18;24.30;25.40
31747;DHT22;18319;48.974;8.462;2023-06-14T14:21:45;24.50;25.80
31747;DHT22;18319;48.974;8.462;2023-06-14T14:24:12;24.50;26.00
31747;DHT22;18319;48.974;8.462;2023-06-14T14:26:39;24.50;25.30
31747;DHT22;18319;48.974;8.462;2023-06-14T14:29:06;24.50;24.90
31747;DHT22;18319;48.974;8.462;2023-06-14T14:31:34;24.40;24.20
31747;DHT22;18319;48.974;8.462;2023-06-14T14:34:01;24.40;25.00
31747;DHT22;18319;48.974;8.462;2023-06-14T14:36:28;24.20;26.40
31747;DHT22;18319;48.974;8.462;2023-06-14T14:38:55;23.80;24.10
31747;DHT22;18319;48.974;8.462;2023-06-14T14:41:21;23.60;25.70
31747;DHT22;18319;48.974;8.462;2023-06-14T14:43:48;23.70;25.40
31747;DHT22;18319;48.974;8.462;2023-06-14T14:46:15;23.90;25.50
31747;DHT22;18319;48.974;8.462;2023-06-14T14:48:44;24.00;25.90
31747;DHT22;18319;48.974;8.462;2023-06-14T14:51:10;24.20;28.30
31747;DHT22;18319;48.974;8.462;2023-06-14T14:53:37;24.10;26.20
31747;DHT22;18319;48.974;8.462;2023-06-14T14:56:04;24.10;28.80
31747;DHT22;18319;48.974;8.462;2023-06-14T14:58:31;24.00;25.30
31747;DHT22;18319;48.974;8.462;2023-06-14T15:00:58;23.90;25.00
31747;DHT22;18319;48.974;8.462;2023-06-14T15:03:25;23.70;24.20
31747;DHT22;18319;48.974;8.462;2023-06-14T15:05:53;23.70;25.40
31747;DHT22;18319;48.974;8.462;2023-06-14T15:08:20;23.80;25.00
31747;DHT22;18319;48.974;8.462;2023-06-14T15:10:47;23.80;24.30
31747;DHT22;18319;48.974;8.462;2023-06-14T15:13:14;23.90;24.30
31747;DHT22;18319;48.974;8.462;2023-06-14T15:15:40;23.90;24.70
31747;DHT22;18319;48.974;8.462;2023-06-14T15:18:08;23.90;23.90
31747;DHT22;18319;48.974;8.462;2023-06-14T15:20:35;23.90;23.80
31747;DHT22;18319;48.974;8.462;2023-06-14T15:23:03;23.90;24.80
31747;DHT22;18319;48.974;8.462;2023-06-14T15:25:30;23.80;25.20
31747;DHT22;18319;48.974;8.462;2023-06-14T15:27:58;23.90;26.20
31747;DHT22;18319;48.974;8.462;2023-06-14T15:30:25;24.10;25.90
31747;DHT22;18319;48.974;8.462;2023-06-14T15:32:51;24.10;24.70
31747;DHT22;18319;48.974;8.462;2023-06-14T15:35:18;24.20;25.50
31747;DHT22;18319;48.974;8.462;2023-06-14T15:37:48;24.20;26.70
31747;DHT22;18319;48.974;8.462;2023-06-14T15:40:16;24.30;25.20
31747;DHT22;18319;48.974;8.462;2023-06-14T15:42:43;24.30;25.10
31747;DHT22;18319;48.974;8.462;2023-06-14T15:45:10;24.20;24.20
31747;DHT22;18319;48.974;8.462;2023-06-14T15:47:37;24.00;23.70
31747;DHT22;18319;48.974;8.462;2023-06-14T15:50:05;24.00;24.50
31747;DHT22;18319;48.974;8.462;2023-06-14T15:52:33;24.10;25.00
31747;DHT22;18319;48.974;8.462;2023-06-14T15:54:59;24.00;23.80
31747;DHT22;18319;48.974;8.462;2023-06-14T15:57:29;23.90;24.00
31747;DHT22;18319;48.974;8.462;2023-06-14T15:59:55;23.90;24.60
31747;DHT22;18319;48.974;8.462;2023-06-14T16:02:22;23.70;24.50
31747;DHT22;18319;48.974;8.462;2023-06-14T16:04:49;23.80;25.10
31747;DHT22;18319;48.974;8.462;2023-06-14T16:07:16;23.70;24.80
31747;DHT22;18319;48.974;8.462;2023-06-14T16:09:42;23.60;24.40
31747;DHT22;18319;48.974;8.462;2023-06-14T16:12:09;23.60;26.50
31747;DHT22;18319;48.974;8.462;2023-06-14T16:14:38;23.60;25.40
31747;DHT22;18319;48.974;8.462;2023-06-14T16:17:05;23.60;26.20
31747;DHT22;18319;48.974;8.462;2023-06-14T16:19:32;23.40;25.20
31747;DHT22;18319;48.974;8.462;2023-06-14T16:21:59;23.40;26.90
31747;DHT22;18319;48.974;8.462;2023-06-14T16:24:26;23.40;26.90
31747;DHT22;18319;48.974;8.462;2023-06-14T16:26:52;23.40;25.40
31747;DHT22;18319;48.974;8.462;2023-06-14T16:29:20;23.40;25.40
31747;DHT22;18319;48.974;8.462;2023-06-14T16:31:48;23.40;25.40
31747;DHT22;18319;48.974;8.462;2023-06-14T16:34:15;23.50;26.20
31747;DHT22;18319;48.974;8.462;2023-06-14T16:36:42;23.40;26.40
31747;DHT22;18319;48.974;8.462;2023-06-14T16:39:09;23.30;27.10
31747;DHT22;18319;48.974;8.462;2023-06-14T16:41:36;23.20;26.70
31747;DHT22;18319;48.974;8.462;2023-06-14T16:44:03;23.20;26.50
31747;DHT22;18319;48.974;8.462;2023-06-14T16:46:31;23.10;27.20
31747;DHT22;18319;48.974;8.462;2023-06-14T16:49:00;23.10;27.20
31747;DHT22;18319;48.974;8.462;2023-06-14T16:51:27;23.00;27.30
31747;DHT22;18319;48.974;8.462;2023-06-14T16:53:54;22.90;26.10
31747;DHT22;18319;48.974;8.462;2023-06-14T16:56:22;22.90;26.50
31747;DHT22;18319;48.974;8.462;2023-06-14T16:58:51;22.80;26.40
31747;DHT22;18319;48.974;8.462;2023-06-14T17:01:19;22.80;25.10
31747;DHT22;18319;48.974;8.462;2023-06-14T17:03:45;22.70;26.10
31747;DHT22;18319;48.974;8.462;2023-06-14T17:06:13;22.60;26.60
31747;DHT22;18319;48.974;8.462;2023-06-14T17:08:41;22.60;26.50
31747;DHT22;18319;48.974;8.462;2023-06-14T17:11:07;22.40;27.10
31747;DHT22;18319;48.974;8.462;2023-06-14T17:13:34;22.40;27.80
31747;DHT22;18319;48.974;8.462;2023-06-14T17:16:01;22.30;27.70
31747;DHT22;18319;48.974;8.462;2023-06-14T17:18:28;22.20;27.80
31747;DHT22;18319;48.974;8.462;2023-06-14T17:20:55;22.20;28.40
31747;DHT22;18319;48.974;8.462;2023-06-14T17:23:23;22.20;28.00
31747;DHT22;18319;48.974;8.462;2023-06-14T17:25:50;22.20;27.70
31747;DHT22;18319;48.974;8.462;2023-06-14T17:28:16;22.10;27.80
31747;DHT22;18319;48.974;8.462;2023-06-14T17:30:43;22.10;27.80
31747;DHT22;18319;48.974;8.462;2023-06-14T17:33:10;22.00;28.60
31747;DHT22;18319;48.974;8.462;2023-06-14T17:35:38;21.90;29.00
31747;DHT22;18319;48.974;8.462;2023-06-14T17:38:04;21.90;29.00
31747;DHT22;18319;48.974;8.462;2023-06-14T17:40:32;21.80;29.70
31747;DHT22;18319;48.974;8.462;2023-06-14T17:42:59;21.80;29.50
31747;DHT22;18319;48.974;8.462;2023-06-14T17:45:26;21.70;30.30
31747;DHT22;18319;48.974;8.462;2023-06-14T17:47:53;21.70;29.80
31747;DHT22;18319;48.974;8.462;2023-06-14T17:50:20;21.60;30.50
31747;DHT22;18319;48.974;8.462;2023-06-14T17:52:47;21.60;30.00
31747;DHT22;18319;48.974;8.462;2023-06-14T17:55:13;21.50;30.60
31747;DHT22;18319;48.974;8.462;2023-06-14T17:57:41;21.50;30.20
31747;DHT22;18319;48.974;8.462;2023-06-14T18:00:09;21.50;30.20
31747;DHT22;18319;48.974;8.462;2023-06-14T18:02:36;21.40;30.10
31747;DHT22;18319;48.974;8.462;2023-06-14T18:05:03;21.30;30.60
31747;DHT22;18319;48.974;8.462;2023-06-14T18:07:30;21.20;30.20
31747;DHT22;18319;48.974;8.462;2023-06-14T18:09:57;21.10;31.00
31747;DHT22;18319;48.974;8.462;2023-06-14T18:12:23;21.00;31.70
31747;DHT22;18319;48.974;8.462;2023-06-14T18:14:52;21.00;30.80
31747;DHT22;18319;48.974;8.462;2023-06-14T18:17:19;21.10;30.40
31747;DHT22;18319;48.974;8.462;2023-06-14T18:19:45;21.00;30.50
31747;DHT22;18319;48.974;8.462;2023-06-14T18:22:12;21.00;30.50
31747;DHT22;18319;48.974;8.462;2023-06-14T18:24:39;20.80;31.10
31747;DHT22;18319;48.974;8.462;2023-06-14T18:27:06;20.90;30.90
31747;DHT22;18319;48.974;8.462;2023-06-14T18:29:39;20.80;31.50
31747;DHT22;18319;48.974;8.462;2023-06-14T18:32:08;20.80;31.00
31747;DHT22;18319;48.974;8.462;2023-06-14T18:34:35;20.80;31.70
31747;DHT22;18319;48.974;8.462;2023-06-14T18:37:01;20.70;31.80
31747;DHT22;18319;48.974;8.462;2023-06-14T18:39:28;20.50;32.40
31747;DHT22;18319;48.974;8.462;2023-06-14T18:41:55;20.60;32.30
31747;DHT22;18319;48.974;8.462;2023-06-14T18:44:22;20.60;32.10
31747;DHT22;18319;48.974;8.462;2023-06-14T18:46:49;20.50;32.60
31747;DHT22;18319;48.974;8.462;2023-06-14T18:49:17;20.40;32.90
31747;DHT22;18319;48.974;8.462;2023-06-14T18:51:44;20.50;32.60
31747;DHT22;18319;48.974;8.462;2023-06-14T18:54:11;20.40;32.70
31747;DHT22;18319;48.974;8.462;2023-06-14T18:56:38;20.40;33.00
31747;DHT22;18319;48.974;8.462;2023-06-14T18:59:05;20.20;33.50
31747;DHT22;18319;48.974;8.462;2023-06-14T19:01:31;20.30;33.40
31747;DHT22;18319;48.974;8.462;2023-06-14T19:03:59;20.20;33.80
31747;DHT22;18319;48.974;8.462;2023-06-14T19:06:27;20.10;34.20
31747;DHT22;18319;48.974;8.462;2023-06-14T19:08:54;20.10;34.40
31747;DHT22;18319;48.974;8.462;2023-06-14T19:11:20;20.00;34.50
31747;DHT22;18319;48.974;8.462;2023-06-14T19:13:47;19.80;34.80
31747;DHT22;18319;48.974;8.462;2023-06-14T19:16:14;19.80;35.10
31747;DHT22;18319;48.974;8.462;2023-06-14T19:18:41;19.80;35.50
31747;DHT22;18319;48.974;8.462;2023-06-14T19:21:07;19.60;36.00
31747;DHT22;18319;48.974;8.462;2023-06-14T19:23:35;19.60;36.30
31747;DHT22;18319;48.974;8.462;2023-06-14T19:26:03;19.50;36.60
31747;DHT22;18319;48.974;8.462;2023-06-14T19:28:30;19.40;36.40
31747;DHT22;18319;48.974;8.462;2023-06-14T19:30:57;19.50;36.70
31747;DHT22;18319;48.974;8.462;2023-06-14T19:33:24;19.30;37.20
31747;DHT22;18319;48.974;8.462;2023-06-14T19:35:51;19.40;36.80
31747;DHT22;18319;48.974;8.462;2023-06-14T19:38:17;19.20;37.40
31747;DHT22;18319;48.974;8.462;2023-06-14T19:40:46;19.20;37.30
31747;DHT22;18319;48.974;8.462;2023-06-14T19:43:12;19.20;37.40
31747;DHT22;18319;48.974;8.462;2023-06-14T19:45:39;19.10;37.60
31747;DHT22;18319;48.974;8.462;2023-06-14T19:48:06;19.30;37.10
31747;DHT22;18319;48.974;8.462;2023-06-14T19:50:33;19.20;37.40
31747;DHT22;18319;48.974;8.462;2023-06-14T19:53:00;19.20;37.20
31747;DHT22;18319;48.974;8.462;2023-06-14T19:55:27;19.20;37.20
31747;DHT22;18319;48.974;8.462;2023-06-14T19:57:55;19.20;37.30
31747;DHT22;18319;48.974;8.462;2023-06-14T20:00:22;19.20;37.10
31747;DHT22;18319;48.974;8.462;2023-06-14T20:02:48;19.20;37.40
31747;DHT22;18319;48.974;8.462;2023-06-14T20:05:16;19.10;37.40
31747;DHT22;18319;48.974;8.462;2023-06-14T20:07:43;19.10;36.80
31747;DHT22;18319;48.974;8.462;2023-06-14T20:10:10;19.00;37.40
31747;DHT22;18319;48.974;8.462;2023-06-14T20:12:38;19.00;37.20
31747;DHT22;18319;48.974;8.462;2023-06-14T20:15:09;19.00;37.20
31747;DHT22;18319;48.974;8.462;2023-06-14T20:17:36;19.10;36.70
31747;DHT22;18319;48.974;8.462;2023-06-14T20:20:04;19.20;36.60
31747;DHT22;18319;48.974;8.462;2023-06-14T20:22:31;19.10;36.40
31747;DHT22;18319;48.974;8.462;2023-06-14T20:25:03;19.10;36.40
31747;DHT22;18319;48.974;8.462;2023-06-14T20:27:31;19.00;36.80
31747;DHT22;18319;48.974;8.462;2023-06-14T20:29:58;18.90;36.90
31747;DHT22;18319;48.974;8.462;2023-06-14T20:32:27;18.90;36.80
31747;DHT22;18319;48.974;8.462;2023-06-14T20:34:54;18.90;36.90
31747;DHT22;18319;48.974;8.462;2023-06-14T20:37:21;19.00;36.70
31747;DHT22;18319;48.974;8.462;2023-06-14T20:39:48;18.90;36.90
31747;DHT22;18319;48.974;8.462;2023-06-14T20:42:15;18.80;36.80
31747;DHT22;18319;48.974;8.462;2023-06-14T20:44:42;18.90;37.40
31747;DHT22;18319;48.974;8.462;2023-06-14T20:47:09;18.80;37.10
31747;DHT22;18319;48.974;8.462;2023-06-14T20:49:39;18.60;37.40
31747;DHT22;18319;48.974;8.462;2023-06-14T20:52:08;18.60;37.80
31747;DHT22;18319;48.974;8.462;2023-06-14T20:54:35;18.60;37.60
31747;DHT22;18319;48.974;8.462;2023-06-14T20:57:05;18.40;38.00
31747;DHT22;18319;48.974;8.462;2023-06-14T20:59:34;18.50;38.10
31747;DHT22;18319;48.974;8.462;2023-06-14T21:02:01;18.40;38.10
31747;DHT22;18319;48.974;8.462;2023-06-14T21:04:27;18.40;38.10
31747;DHT22;18319;48.974;8.462;2023-06-14T21:06:56;18.40;38.20
31747;DHT22;18319;48.974;8.462;2023-06-14T21:09:22;18.40;38.40
31747;DHT22;18319;48.974;8.462;2023-06-14T21:11:49;18.40;38.40
31747;DHT22;18319;48.974;8.462;2023-06-14T21:14:16;18.30;38.80
31747;DHT22;18319;48.974;8.462;2023-06-14T21:16:43;18.20;39.20
31747;DHT22;18319;48.974;8.462;2023-06-14T21:19:09;18.30;39.00
31747;DHT22;18319;48.974;8.462;2023-06-14T21:21:36;18.20;39.00
31747;DHT22;18319;48.974;8.462;2023-06-14T21:24:05;18.10;39.40
31747;DHT22;18319;48.974;8.462;2023-06-14T21:26:32;18.00;39.50
31747;DHT22;18319;48.974;8.462;2023-06-14T21:28:59;17.90;39.80
31747;DHT22;18319;48.974;8.462;2023-06-14T21:31:26;17.90;39.90
31747;DHT22;18319;48.974;8.462;2023-06-14T21:33:53;17.70;40.50
31747;DHT22;18319;48.974;8.462;2023-06-14T21:36:20;17.60;40.80
31747;DHT22;18319;48.974;8.462;2023-06-14T21:38:47;17.50;41.20
31747;DHT22;18319;48.974;8.462;2023-06-14T21:41:15;17.50;41.80
31747;DHT22;18319;48.974;8.462;2023-06-14T21:43:42;17.40;41.70
31747;DHT22;18319;48.974;8.462;2023-06-14T21:46:09;17.30;42.30
31747;DHT22;18319;48.974;8.462;2023-06-14T21:48:35;17.30;42.60
31747;DHT22;18319;48.974;8.462;2023-06-14T21:51:02;17.20;43.10
31747;DHT22;18319;48.974;8.462;2023-06-14T21:53:29;17.10;43.60
31747;DHT22;18319;48.974;8.462;2023-06-14T21:55:57;17.10;44.50
31747;DHT22;18319;48.974;8.462;2023-06-14T21:58:25;17.00;44.20
31747;DHT22;18319;48.974;8.462;2023-06-14T22:00:52;16.90;44.70
31747;DHT22;18319;48.974;8.462;2023-06-14T22:03:19;17.00;44.70
31747;DHT22;18319;48.974;8.462;2023-06-14T22:05:46;16.90;44.90
31747;DHT22;18319;48.974;8.462;2023-06-14T22:08:12;16.90;44.90
31747;DHT22;18319;48.974;8.462;2023-06-14T22:10:39;16.90;45.20
31747;DHT22;18319;48.974;8.462;2023-06-14T22:13:06;16.80;45.70
31747;DHT22;18319;48.974;8.462;2023-06-14T22:15:39;16.70;46.00
31747;DHT22;18319;48.974;8.462;2023-06-14T22:18:06;16.80;45.40
31747;DHT22;18319;48.974;8.462;2023-06-14T22:20:32;16.70;45.30
31747;DHT22;18319;48.974;8.462;2023-06-14T22:22:59;16.70;45.90
31747;DHT22;18319;48.974;8.462;2023-06-14T22:25:28;16.70;45.70
31747;DHT22;18319;48.974;8.462;2023-06-14T22:27:54;16.70;45.70
31747;DHT22;18319;48.974;8.462;2023-06-14T22:30:22;16.70;46.40
31747;DHT22;18319;48.974;8.462;2023-06-14T22:32:51;16.60;46.50
31747;DHT22;18319;48.974;8.462;2023-06-14T22:35:19;16.60;46.50
31747;DHT22;18319;48.974;8.462;2023-06-14T22:37:45;16.60;46.60
31747;DHT22;18319;48.974;8.462;2023-06-14T22:40:13;16.60;46.40
31747;DHT22;18319;48.974;8.462;2023-06-14T22:42:43;16.50;47.00
31747;DHT22;18319;48.974;8.462;2023-06-14T22:45:14;16.60;47.00
31747;DHT22;18319;48.974;8.462;2023-06-14T22:47:42;16.50;47.50
31747;DHT22;18319;48.974;8.462;2023-06-14T22:50:11;16.50;47.60
31747;DHT22;18319;48.974;8.462;2023-06-14T22:52:38;16.60;47.50
31747;DHT22;18319;48.974;8.462;2023-06-14T22:55:06;16.60;47.90
31747;DHT22;18319;48.974;8.462;2023-06-14T22:57:34;16.60;47.80
31747;DHT22;18319;48.974;8.462;2023-06-14T23:00:01;16.60;47.80
31747;DHT22;18319;48.974;8.462;2023-06-14T23:02:31;16.60;47.70
31747;DHT22;18319;48.974;8.462;2023-06-14T23:04:58;16.60;48.40
31747;DHT22;18319;48.974;8.462;2023-06-14T23:07:27;16.50;48.00
31747;DHT22;18319;48.974;8.462;2023-06-14T23:09:55;16.50;48.00
31747;DHT22;18319;48.974;8.462;2023-06-14T23:12:22;16.40;48.40
31747;DHT22;18319;48.974;8.462;2023-06-14T23:14:51;16.30;48.80
31747;DHT22;18319;48.974;8.462;2023-06-14T23:17:17;16.20;49.50
31747;DHT22;18319;48.974;8.462;2023-06-14T23:19:44;16.10;49.70
31747;DHT22;18319;48.974;8.462;2023-06-14T23:22:11;16.00;50.30
31747;DHT22;18319;48.974;8.462;2023-06-14T23:24:40;16.00;50.20
31747;DHT22;18319;48.974;8.462;2023-06-14T23:27:07;16.00;51.00
31747;DHT22;18319;48.974;8.462;2023-06-14T23:29:34;15.90;51.30
31747;DHT22;18319;48.974;8.462;2023-06-14T23:32:03;15.90;51.60
31747;DHT22;18319;48.974;8.462;2023-06-14T23:34:30;15.70;52.00
31747;DHT22;18319;48.974;8.462;2023-06-14T23:36:59;15.70;52.10
31747;DHT22;18319;48.974;8.462;2023-06-14T23:39:26;15.60;52.20
31747;DHT22;18319;48.974;8.462;2023-06-14T23:41:54;15.60;52.20
31747;DHT22;18319;48.974;8.462;2023-06-14T23:44:23;15.50;52.60
31747;DHT22;18319;48.974;8.462;2023-06-14T23:46:51;15.40;52.30
31747;DHT22;18319;48.974;8.462;2023-06-14T23:49:22;15.50;52.40
31747;DHT22;18319;48.974;8.462;2023-06-14T23:51:48;15.50;52.60
31747;DHT22;18319;48.974;8.462;2023-06-14T23:54:16;15.50;52.20
31747;DHT22;18319;48.974;8.462;2023-06-14T23:56:43;15.60;52.20
31747;DHT22;18319;48.974;8.462;2023-06-14T23:59:14;15.70;51.50
